createdAt,value
2019-05-09T00:02:04.091Z,11.12
2019-05-09T00:07:26.031Z,9.80
2019-05-09T00:12:47.803Z,11.68
2019-05-09T00:18:09.375Z,10.63
2019-05-09T00:23:30.707Z,8.83
2019-05-09T00:28:56.487Z,10.90
2019-05-09T00:34:37.886Z,11.57
2019-05-09T00:39:59.526Z,8.83
2019-05-09T00:45:35.231Z,11.50
2019-05-09T00:50:56.530Z,10.48
2019-05-09T00:56:18.298Z,10.13
2019-05-09T01:01:40.138Z,11.35
2019-05-09T01:07:03.462Z,12.85
2019-05-09T01:12:25.446Z,10.95
2019-05-09T01:17:47.153Z,11.83
2019-05-09T01:23:08.822Z,9.93
2019-05-09T01:28:30.484Z,9.35
2019-05-09T01:34:20.691Z,10.20
2019-05-09T01:39:44.047Z,10.58
2019-05-09T01:45:06.325Z,9.80
2019-05-09T01:50:28.091Z,10.72
2019-05-09T01:55:58.816Z,9.33
2019-05-09T02:01:20.401Z,10.85
2019-05-09T02:06:44.061Z,10.77
2019-05-09T02:12:05.686Z,11.00
2019-05-09T02:18:00.613Z,9.53
2019-05-09T02:23:16.454Z,9.65
2019-05-09T02:28:38.178Z,10.70
2019-05-09T02:33:59.802Z,11.15
2019-05-09T02:39:21.331Z,9.58
2019-05-09T02:44:43.097Z,13.10
2019-05-09T02:50:09.019Z,9.73
2019-05-09T02:55:29.871Z,10.85
2019-05-09T03:01:23.070Z,8.93
2019-05-09T03:06:44.812Z,10.88
2019-05-09T03:12:22.660Z,11.90
2019-05-09T03:17:30.444Z,9.65
2019-05-09T03:22:51.971Z,11.45
2019-05-09T03:28:28.206Z,14.47
2019-05-09T03:33:50.282Z,11.70
2019-05-09T03:39:12.316Z,12.15
2019-05-09T03:44:33.990Z,11.63
2019-05-09T03:50:09.793Z,10.63
2019-05-09T03:55:34.660Z,11.80
2019-05-09T04:00:58.006Z,13.10
2019-05-09T04:06:19.638Z,9.53
2019-05-09T04:11:41.386Z,12.90
2019-05-09T04:17:03.203Z,10.13
2019-05-09T04:22:27.079Z,11.25
2019-05-09T04:27:50.233Z,11.57
2019-05-09T04:33:12.283Z,11.15
2019-05-09T04:38:34.180Z,11.35
2019-05-09T04:43:57.481Z,13.13
2019-05-09T04:49:19.239Z,10.88
2019-05-09T04:54:41.371Z,12.05
2019-05-09T05:00:03.580Z,9.98
2019-05-09T05:05:25.552Z,10.68
2019-05-09T05:10:47.778Z,12.73
2019-05-09T05:16:09.675Z,12.53
2019-05-09T05:21:31.297Z,14.13
2019-05-09T05:26:52.914Z,13.00
2019-05-09T05:32:21.859Z,12.75
2019-05-09T05:37:43.401Z,14.20
2019-05-09T05:43:05.183Z,17.25
2019-05-09T05:48:29.089Z,13.40
2019-05-09T05:53:52.369Z,14.95
2019-05-09T05:59:14.144Z,14.50
2019-05-09T06:04:37.912Z,15.40
2019-05-09T06:09:59.386Z,14.75
2019-05-09T06:15:20.850Z,15.90
2019-05-09T06:20:45.453Z,12.55
2019-05-09T06:26:09.696Z,17.60
2019-05-09T06:31:29.865Z,15.48
2019-05-09T06:36:51.510Z,16.17
2019-05-09T06:42:13.233Z,19.05
2019-05-09T06:47:38.074Z,17.60
2019-05-09T06:52:59.920Z,16.80
2019-05-09T06:58:30.859Z,15.10
2019-05-09T07:03:57.520Z,15.10
2019-05-09T07:09:31.877Z,15.88
2019-05-09T07:14:53.784Z,17.40
2019-05-09T07:20:18.108Z,15.60
2019-05-09T07:25:58.923Z,13.38
2019-05-09T07:31:31.003Z,18.27
2019-05-09T07:36:52.846Z,15.40
2019-05-09T07:42:14.175Z,13.13
2019-05-09T07:47:36.079Z,12.80
2019-05-09T07:52:58.297Z,13.58
2019-05-09T07:58:19.882Z,16.30
2019-05-09T08:03:41.707Z,11.88
2019-05-09T08:09:08.363Z,13.13
2019-05-09T08:14:31.601Z,11.78
2019-05-09T08:19:53.257Z,12.05
2019-05-09T08:25:15.131Z,11.57
2019-05-09T08:30:40.073Z,11.05
2019-05-09T08:36:00.615Z,12.88
2019-05-09T08:41:22.193Z,9.13
2019-05-09T08:46:43.802Z,9.18
2019-05-09T08:52:16.091Z,11.35
2019-05-09T08:57:34.777Z,9.78
2019-05-09T09:02:57.412Z,9.30
2019-05-09T09:08:19.618Z,9.43
2019-05-09T09:13:41.345Z,12.50
2019-05-09T09:19:03.096Z,11.03
2019-05-09T09:24:24.931Z,11.20
2019-05-09T09:29:48.136Z,10.30
2019-05-09T09:35:10.521Z,10.63
2019-05-09T09:40:32.024Z,9.20
2019-05-09T09:46:10.131Z,9.55
2019-05-09T09:51:18.566Z,12.68
2019-05-09T09:56:47.835Z,10.18
2019-05-09T10:02:10.518Z,11.73
2019-05-09T10:07:32.386Z,11.65
2019-05-09T10:12:54.331Z,9.58
2019-05-09T10:18:41.536Z,11.73
2019-05-09T10:24:03.111Z,10.43
2019-05-09T10:29:24.772Z,10.58
2019-05-09T10:40:21.124Z,10.55
2019-05-09T10:46:16.402Z,10.65
2019-05-09T10:51:38.146Z,7.45
2019-05-09T10:57:00.145Z,8.10
2019-05-09T11:02:21.875Z,9.63
2019-05-09T11:07:43.674Z,8.58
2019-05-09T11:13:07.579Z,9.23
2019-05-09T11:18:28.761Z,8.55
2019-05-09T11:23:50.460Z,8.85
2019-05-09T11:29:12.517Z,10.55
2019-05-09T11:34:34.096Z,8.23
2019-05-09T11:39:57.801Z,10.25
2019-05-09T11:45:19.286Z,8.83
2019-05-09T11:50:40.694Z,8.85
2019-05-09T11:56:02.312Z,9.63
2019-05-09T12:01:23.657Z,7.55
2019-05-09T12:06:45.659Z,11.88
2019-05-09T12:12:07.352Z,9.13
2019-05-09T12:17:40.804Z,7.25
2019-05-09T12:22:52.513Z,11.18
2019-05-09T12:28:14.593Z,10.00
2019-05-09T12:33:36.130Z,8.68
2019-05-09T12:38:59.058Z,8.15
2019-05-09T12:44:24.756Z,10.08
2019-05-09T12:49:44.916Z,8.93
2019-05-09T12:55:08.183Z,14.18
2019-05-09T13:00:30.884Z,11.53
2019-05-09T13:05:52.342Z,9.88
2019-05-09T13:11:13.636Z,12.75
2019-05-09T13:16:52.499Z,11.97
2019-05-09T13:22:12.604Z,10.85
2019-05-09T13:27:34.325Z,9.95
2019-05-09T13:32:56.018Z,9.48
2019-05-09T13:38:18.046Z,8.33
2019-05-09T13:43:47.728Z,8.08
2019-05-09T13:49:11.411Z,10.82
2019-05-09T13:54:28.552Z,17.37
2019-05-09T13:59:50.579Z,10.93
2019-05-09T14:05:12.277Z,10.38
2019-05-09T14:10:34.011Z,11.43
2019-05-09T14:15:57.663Z,10.80
2019-05-09T14:21:24.382Z,8.95
2019-05-09T14:26:43.877Z,9.63
2019-05-09T14:32:05.839Z,9.00
2019-05-09T14:37:28.411Z,9.00
2019-05-09T14:42:50.147Z,8.35
2019-05-09T14:48:11.903Z,10.43
2019-05-09T14:53:33.962Z,11.97
2019-05-09T14:58:57.721Z,9.75
2019-05-09T15:04:19.452Z,12.50
2019-05-09T15:09:41.494Z,10.20
2019-05-09T15:15:03.468Z,11.20
2019-05-09T15:20:25.099Z,9.38
2019-05-09T15:25:48.050Z,13.75
2019-05-09T15:31:09.904Z,15.43
2019-05-09T15:36:31.855Z,12.78
2019-05-09T15:41:53.621Z,14.20
2019-05-09T15:47:21.716Z,12.00
2019-05-09T15:52:44.266Z,11.28
2019-05-09T15:58:05.904Z,11.93
2019-05-09T16:03:28.003Z,10.40
2019-05-09T16:08:49.713Z,18.35
2019-05-09T16:14:11.047Z,12.18
2019-05-09T16:19:32.669Z,12.60
2019-05-09T16:24:53.923Z,12.07
2019-05-09T16:30:15.474Z,15.08
2019-05-09T16:35:38.139Z,15.10
2019-05-09T16:40:59.921Z,12.53
2019-05-09T16:46:22.214Z,14.38
2019-05-09T16:51:43.743Z,10.35
2019-05-09T16:57:08.092Z,21.02
2019-05-09T17:02:28.847Z,20.43
2019-05-09T17:07:52.388Z,22.30
2019-05-09T17:13:14.981Z,15.70
2019-05-09T17:18:38.187Z,19.15
2019-05-09T17:24:00.032Z,17.98
2019-05-09T17:29:24.581Z,16.23
2019-05-09T17:34:47.595Z,19.02
2019-05-09T17:40:15.953Z,11.93
2019-05-09T17:45:41.093Z,16.07
2019-05-09T17:51:00.225Z,15.78
2019-05-09T17:56:22.025Z,14.23
2019-05-09T18:01:43.868Z,10.45
2019-05-09T18:07:08.534Z,10.32
2019-05-09T18:12:29.496Z,14.50
2019-05-09T18:17:54.139Z,18.82
2019-05-09T18:23:17.664Z,21.65
2019-05-09T18:28:40.413Z,24.12
2019-05-09T18:34:02.709Z,30.92
2019-05-09T18:39:24.668Z,26.90
2019-05-09T18:44:47.638Z,23.62
2019-05-09T18:50:09.877Z,26.33
2019-05-09T18:55:31.459Z,27.55
2019-05-09T19:00:52.819Z,22.85
2019-05-09T19:06:14.585Z,28.20
2019-05-09T19:11:36.288Z,27.55
2019-05-09T19:17:23.487Z,25.77
2019-05-09T19:22:45.294Z,25.77
2019-05-09T19:28:06.939Z,23.40
2019-05-09T19:33:28.442Z,25.88
2019-05-09T19:38:57.362Z,21.95
2019-05-09T19:44:19.099Z,21.95
2019-05-09T19:49:41.247Z,22.80
2019-05-09T19:55:02.783Z,23.38
2019-05-09T20:00:24.718Z,25.08
2019-05-09T20:05:46.256Z,23.98
2019-05-09T20:11:36.367Z,33.33
2019-05-09T20:16:58.568Z,25.70
2019-05-09T20:22:22.102Z,24.72
2019-05-09T20:27:44.382Z,25.30
2019-05-09T20:33:06.184Z,25.12
2019-05-09T20:38:27.714Z,22.60
2019-05-09T20:43:49.505Z,21.30
2019-05-09T20:49:11.141Z,26.25
2019-05-09T20:54:32.623Z,24.70
2019-05-09T20:59:54.016Z,30.23
2019-05-09T21:05:15.958Z,27.00
2019-05-09T21:10:37.639Z,23.85
2019-05-09T21:15:59.198Z,27.82
2019-05-09T21:21:20.881Z,25.35
2019-05-09T21:26:43.062Z,25.50
2019-05-09T21:32:04.545Z,24.67
2019-05-09T21:37:26.537Z,27.45
2019-05-09T21:42:48.360Z,26.37
2019-05-09T21:48:10.130Z,27.32
2019-05-09T21:53:40.479Z,27.77
2019-05-09T21:58:55.410Z,33.23
2019-05-09T22:04:17.086Z,31.77
2019-05-09T22:09:39.217Z,29.92
2019-05-09T22:15:03.796Z,29.40
2019-05-09T22:20:24.775Z,26.77
2019-05-09T22:25:46.319Z,26.40
2019-05-09T22:31:07.765Z,26.90
2019-05-09T22:36:29.657Z,27.58
2019-05-09T22:41:51.557Z,27.82
2019-05-09T22:47:13.090Z,29.12
2019-05-09T22:52:34.695Z,27.50
2019-05-09T22:57:56.800Z,31.90
2019-05-09T23:03:18.840Z,38.28
2019-05-09T23:08:40.691Z,35.70
2019-05-09T23:14:02.227Z,34.15
2019-05-09T23:19:23.985Z,32.45
2019-05-09T23:24:45.701Z,34.83
2019-05-09T23:30:09.718Z,35.40
2019-05-09T23:35:31.652Z,33.33
2019-05-09T23:40:53.397Z,29.77
2019-05-09T23:46:15.058Z,31.42
2019-05-09T23:51:46.923Z,29.95
2019-05-09T23:57:27.750Z,33.98
